Flight Track Log - Related Links

Times and Time Zones

All times are in EDT time to prevent confusion due to time zone crossing. See the SWA534 flight status page for this flight to view local times or setup timezone preferences in your user account.

Time Position Orientation Groundspeed Altitude Reporting Facility
EDT Latitude Longitude Course Direction KTS MPH feet Rate Location/Type
Sun 06:40:06 PM 37.7667 -122.3000 310° West 221 254 3,400  Level Northern Cal TRACON
Sun 06:42:01 PM 37.9069 -122.2669 11° North 284 327 8,300 2,407 Climbing Oakland Center
Sun 06:43:03 PM 37.9892 -122.2422 13° North 297 342 10,500 2,244 Climbing Oakland Center
Sun 06:44:04 PM 38.0864 -122.2464 358° North 346 398 12,900 2,213 Climbing Oakland Center
Sun 06:45:05 PM 38.1875 -122.2550 356° North 364 419 15,000 2,066 Climbing Oakland Center
Sun 06:46:06 PM 38.2950 -122.2608 358° North 385 443 17,100 2,066 Climbing Oakland Center
Sun 06:47:07 PM 38.4064 -122.2714 356° North 399 459 19,200 2,195 Climbing Oakland Center
Sun 06:48:09 PM 38.5450 -122.2814 357° North 415 478 21,600 1,951 Climbing Oakland Center
Sun 06:49:10 PM 38.6622 -122.2908 356° North 422 486 23,200 1,525 Climbing Oakland Center
Sun 06:50:11 PM 38.7692 -122.2989 357° North 436 502 24,700 1,475 Climbing Oakland Center
Sun 06:51:12 PM 38.8914 -122.3103 356° North 438 504 26,200 1,426 Climbing Oakland Center
Sun 06:52:13 PM 39.0436 -122.3206 357° North 451 519 27,600 1,082 Climbing Oakland Center
Sun 06:53:14 PM 39.1753 -122.3306 357° North 469 540 28,400 976 Climbing Oakland Center
Sun 06:54:16 PM 39.3100 -122.3414 356° North 481 554 29,600 1,073 Climbing Oakland Center
Sun 06:55:17 PM 39.4464 -122.3511 357° North 488 562 30,600 836 Climbing Oakland Center
Sun 06:56:18 PM 39.5917 -122.3631 356° North 499 574 31,300 738 Climbing Oakland Center
Sun 06:57:19 PM 39.7331 -122.3739 357° North 507 583 32,100 787 Climbing Oakland Center
Sun 06:58:20 PM 39.8756 -122.3861 356° North 511 588 32,900 829 Climbing Oakland Center
Sun 06:59:22 PM 40.0183 -122.3986 356° North 510 587 33,800 537 Climbing Oakland Center
Sun 07:00:23 PM 40.1697 -122.4158 355° North 526 605 34,000 98 Climbing Oakland Center
Sun 07:01:24 PM 40.3150 -122.4228 358° North 514 592 34,000  Level Oakland Center
Sun 07:02:25 PM 40.4561 -122.4339 357° North 509 586 34,000  Level Oakland Center
Sun 07:03:27 PM 40.5964 -122.4444 357° North 506 582 34,000  Level Oakland Center
Sun 07:04:28 PM 40.7364 -122.4567 356° North 505 581 34,000  Level Oakland Center
Sun 07:05:29 PM 40.8769 -122.4672 357° North 506 582 34,000  Level Oakland Center
Sun 07:06:30 PM 41.0172 -122.4783 357° North 506 582 34,000  Level Oakland Center
Sun 07:07:32 PM 41.1586 -122.4931 356° North 510 587 34,000  Level Oakland Center
Sun 07:08:33 PM 41.2994 -122.5042 357° North 509 586 34,000  Level Oakland Center
Sun 07:09:11 PM 41.4100 -122.5147 356° North 510 587 34,000  Level Seattle Center
Sun 07:10:12 PM 41.5419 -122.5244 357° North 510 587 34,000  Level Seattle Center
Sun 07:11:13 PM 41.6850 -122.5372 356° North 512 589 34,000  Level Seattle Center
Sun 07:12:14 PM 41.8281 -122.5475 357° North 512 589 34,000  Level Seattle Center
Sun 07:13:15 PM 41.9722 -122.5597 356° North 514 592 34,000  Level Seattle Center
Sun 07:14:16 PM 42.1186 -122.5731 356° North 520 598 34,000  Level Seattle Center
Sun 07:15:17 PM 42.2644 -122.5847 357° North 520 598 34,000  Level Seattle Center
Sun 07:16:17 PM 42.4128 -122.5969 357° North 528 608 34,000  Level Seattle Center
Sun 07:17:18 PM 42.5617 -122.6094 356° North 533 613 34,000  Level Seattle Center
Sun 07:18:19 PM 42.7100 -122.6219 356° North 533 613 34,000  Level Seattle Center
Sun 07:19:20 PM 42.8622 -122.6364 356° North 532 612 34,000  Level Seattle Center
Sun 07:20:21 PM 43.0100 -122.6500 356° North 533 613 34,000  Level Seattle Center
Sun 07:21:22 PM 43.1578 -122.6625 356° North 533 613 34,000  Level Seattle Center
Sun 07:22:23 PM 43.3353 -122.6778 356° North 534 615 34,000  Level Seattle Center
Sun 07:23:23 PM 43.4850 -122.6914 356° North 538 619 34,000  Level Seattle Center
Sun 07:24:24 PM 43.6347 -122.7047 356° North 540 621 34,000  Level Seattle Center
Sun 07:25:25 PM 43.7844 -122.7178 356° North 540 621 34,000 -1,377 Level Seattle Center
Sun 07:26:26 PM 43.9331 -122.7311 356° North 539 620 31,200 -2,727 Descending Seattle Center
Sun 07:27:26 PM 44.0769 -122.7456 356° North 530 610 28,500 -2,529 Descending Seattle Center
Sun 07:28:27 PM 44.2125 -122.7467 360° North 503 579 26,100 -2,410 Descending Seattle Center
Sun 07:29:28 PM 44.3472 -122.7336 North 481 554 23,600 -2,361 Descending Seattle Center
Sun 07:30:29 PM 44.4753 -122.7217 North 465 535 21,300 -2,213 Descending Seattle Center
Sun 07:31:30 PM 44.5967 -122.7094 North 443 510 19,100 -2,231 Descending Seattle Center
Sun 07:32:30 PM 44.7150 -122.6983 North 433 498 16,800 -2,231 Descending Seattle Center
Sun 07:33:31 PM 44.8283 -122.6861 North 413 475 14,600 -2,375 Descending Seattle Center
Sun 07:34:06 PM 44.9106 -122.6789 North 405 466 13,000 -1,705 Descending Seattle Center
Sun 07:35:06 PM 45.0189 -122.6686 North 387 445 11,900 -1,488 Descending Seattle Center
Sun 07:36:07 PM 45.1203 -122.6553 North 365 420 10,000 -934 Descending Seattle Center
Sun 07:37:08 PM 45.2247 -122.6467 North 360 414 10,000 -47 Level Seattle Center
Sun 07:38:15 PM 45.3331 -122.6364 North 341 392 9,900 -609 Descending Seattle Center
Sun 07:39:16 PM 45.4139 -122.6283 North 277 319 8,700 -1,489 Descending Seattle Center
Sun 07:40:36 PM 45.4700 -122.5558 42° Northeast 286 329 6,400 -1,465 Descending Seattle Center
Sun 07:41:23 PM 45.4522 -122.4864 110° East 219 252 5,600 -833 Descending Seattle Center
Sun 07:42:24 PM 45.4306 -122.4119 113° Southeast 200 230 4,900 -1,086 Descending Seattle Center
Sun 07:43:19 PM 45.4494 -122.3550 65° Northeast 202 232 3,500 -1,200 Descending Seattle Center
Sun 07:44:14 PM 45.4894 -122.3817 335° Northwest 188 216 2,700 -569 Descending Seattle Center
Sun 07:45:15 PM 45.5217 -122.4331 312° West 160 184 2,400 -516 Descending Seattle Center
Sun 07:46:22 PM 45.5439 -122.4889 300° West 142 163 1,600 -694 Descending Seattle Center
Sun 07:47:16 PM 45.5622 -122.5367 299° West 146 168 1,000 -771 Descending Seattle Center
Sun 07:48:11 PM 45.5769 -122.5772 297° West 142 163 200 -873 Descending Seattle Center

Login

Don't have an account? Register now (free) for customized features, flight alerts, and more!